Time;durP1;ratioP1;P1;durP2;ratioP2;P2;SDS_P1;SDS_P2;PMS_P1;PMS_P2;Temp;Humidity;BMP_temperature;BMP_pressure;BME280_temperature;BME280_humidity;BME280_pressure;Samples;Min_cycle;Max_cycle;Signal;HPM_P1;HPM_P2
2021/12/11 00:01:48;;;;;;;105.00;41.40;;;;;;;-0.85;87.84;97336.97;103152;1326;137359;-85
2021/12/11 00:04:21;;;;;;;97.10;40.40;;;;;;;-0.87;88.30;97337.04;103030;1325;26667;-85
2021/12/11 00:06:52;;;;;;;107.00;40.80;;;;;;;-0.86;88.89;97340.54;103048;1327;137486;-85
2021/12/11 00:09:29;;;;;;;99.80;39.20;;;;;;;-0.86;88.31;97345.56;103189;1327;22635;-85
2021/12/11 00:12:08;;;;;;;100.40;40.70;;;;;;;-0.88;88.38;97339.27;103045;1320;138237;-85
2021/12/11 00:15:08;;;;;;;107.20;40.90;;;;;;;-0.90;88.38;97342.42;103128;1319;22606;-85
2021/12/11 00:17:56;;;;;;;101.20;39.50;;;;;;;-0.90;88.47;97349.27;102901;1327;138358;-85
2021/12/11 00:20:43;;;;;;;96.40;40.70;;;;;;;-0.95;88.21;97352.92;103346;1324;22671;-85
2021/12/11 00:23:18;;;;;;;111.90;43.70;;;;;;;-0.98;88.80;97350.03;103083;1326;24453;-86
2021/12/11 00:25:46;;;;;;;105.30;41.00;;;;;;;-0.97;88.74;97352.83;102748;1328;138094;-85
2021/12/11 00:28:15;;;;;;;103.20;42.60;;;;;;;-0.97;88.84;97355.63;103175;1320;22629;-85
2021/12/11 00:30:58;;;;;;;105.30;40.30;;;;;;;-0.94;88.82;97355.48;103008;1326;137408;-85
2021/12/11 00:33:32;;;;;;;111.10;43.80;;;;;;;-0.91;89.10;97363.51;103252;1326;25362;-85
2021/12/11 00:36:11;;;;;;;105.10;42.00;;;;;;;-0.93;89.02;97364.98;102945;1328;137766;-85
2021/12/11 00:38:39;;;;;;;106.90;43.70;;;;;;;-0.95;89.11;97360.27;103291;1327;23352;-85
2021/12/11 00:41:11;;;;;;;114.00;43.00;;;;;;;-0.96;88.77;97366.23;103316;1328;22714;-85
2021/12/11 00:43:40;;;;;;;101.10;42.60;;;;;;;-0.96;88.86;97367.82;102997;1329;138143;-85
2021/12/11 00:46:14;;;;;;;101.40;40.70;;;;;;;-0.97;88.84;97367.88;103316;1321;22638;-85
2021/12/11 00:48:43;;;;;;;87.90;37.50;;;;;;;-0.97;88.87;97366.69;103173;1324;137542;-85
2021/12/11 00:51:17;;;;;;;94.70;38.20;;;;;;;-0.99;88.75;97367.83;103189;1321;24690;-85
2021/12/11 00:53:50;;;;;;;98.00;38.70;;;;;;;-1.03;88.76;97371.38;103073;1327;137601;-85
2021/12/11 00:56:21;;;;;;;91.60;37.10;;;;;;;-1.05;88.84;97371.73;103210;1321;22757;-85
2021/12/11 00:59:08;;;;;;;85.10;34.50;;;;;;;-1.06;88.70;97373.23;103098;1321;22732;-85
2021/12/11 01:01:58;;;;;;;86.70;34.70;;;;;;;-1.10;88.92;97384.13;103189;1326;137564;-85
2021/12/11 01:04:28;;;;;;;79.60;33.10;;;;;;;-1.11;89.25;97408.20;103150;1325;25286;-85
2021/12/11 01:07:00;;;;;;;79.90;32.80;;;;;;;-1.11;89.48;97416.39;103027;1321;137463;-85
2021/12/11 01:09:42;;;;;;;78.60;32.40;;;;;;;-1.09;89.08;97415.16;103211;1324;29155;-85
2021/12/11 01:12:24;;;;;;;75.40;31.60;;;;;;;-1.10;88.96;97422.27;103181;1325;137950;-84
2021/12/11 01:15:07;;;;;;;74.80;29.70;;;;;;;-1.14;88.70;97441.52;103246;1321;22665;-85
2021/12/11 01:17:59;;;;;;;74.70;31.10;;;;;;;-1.18;88.88;97447.79;103191;1322;137911;-85
2021/12/11 01:20:36;;;;;;;78.50;33.00;;;;;;;-1.24;88.72;97446.55;103143;1325;24439;-85
2021/12/11 01:23:27;;;;;;;75.50;30.80;;;;;;;-1.27;89.09;97449.49;103323;1325;25376;-85
2021/12/11 01:25:55;;;;;;;72.00;30.10;;;;;;;-1.29;89.21;97445.27;103071;1326;137949;-85
2021/12/11 01:28:22;;;;;;;72.70;30.60;;;;;;;-1.27;89.34;97444.27;102888;1326;22822;-85
2021/12/11 01:30:49;;;;;;;72.50;30.00;;;;;;;-1.25;89.46;97442.46;103192;1322;137747;-84
2021/12/11 01:33:23;;;;;;;74.20;31.70;;;;;;;-1.22;89.87;97450.52;103097;1323;22682;-85
2021/12/11 01:35:50;;;;;;;79.40;31.70;;;;;;;-1.16;90.05;97449.85;103094;1327;137633;-85
2021/12/11 01:38:24;;;;;;;71.80;29.10;;;;;;;-1.14;89.65;97444.02;103233;1324;22593;-85
2021/12/11 01:40:56;;;;;;;79.50;32.20;;;;;;;-1.12;89.40;97446.88;102992;1321;25331;-85
2021/12/11 01:43:26;;;;;;;66.40;28.00;;;;;;;-1.13;89.47;97453.01;102799;1327;137872;-85
2021/12/11 01:46:00;;;;;;;71.30;30.00;;;;;;;-1.17;89.14;97454.98;103191;1327;22609;-85
2021/12/11 01:48:37;;;;;;;72.70;29.60;;;;;;;-1.19;89.59;97453.20;102955;1321;138135;-85
2021/12/11 01:51:19;;;;;;;74.50;29.20;;;;;;;-1.21;89.52;97455.45;103044;1321;22686;-85
2021/12/11 01:54:12;;;;;;;69.70;29.00;;;;;;;-1.19;89.46;97458.79;103068;1327;139023;-85
2021/12/11 01:56:49;;;;;;;78.70;31.30;;;;;;;-1.20;89.13;97465.11;103174;1327;22610;-85
2021/12/11 01:59:25;;;;;;;61.20;25.40;;;;;;;-1.25;88.99;97464.13;103050;1325;22584;-85
2021/12/11 02:02:15;;;;;;;59.40;23.30;;;;;;;-1.35;88.75;97460.70;102992;1327;137357;-85
2021/12/11 02:04:56;;;;;;;70.80;28.90;;;;;;;-1.52;88.42;97461.42;103091;1327;22709;-85
2021/12/11 02:07:36;;;;;;;71.30;28.00;;;;;;;-1.59;88.98;97466.00;102963;1328;137894;-85
2021/12/11 02:10:10;;;;;;;65.90;28.50;;;;;;;-1.64;89.08;97464.92;103062;1327;22694;-85
2021/12/11 02:12:42;;;;;;;63.70;27.10;;;;;;;-1.68;88.94;97467.55;103088;1325;137856;-85
2021/12/11 02:15:15;;;;;;;65.70;28.40;;;;;;;-1.73;89.10;97468.91;103096;1328;22598;-85
2021/12/11 02:17:47;;;;;;;60.90;24.10;;;;;;;-1.84;89.31;97470.81;102905;1328;137840;-85
2021/12/11 02:20:22;;;;;;;64.90;27.20;;;;;;;-1.88;89.46;97474.98;103133;1325;22572;-85
2021/12/11 02:22:50;;;;;;;66.20;27.80;;;;;;;-1.94;89.92;97479.30;103304;1325;22663;-85
2021/12/11 02:25:22;;;;;;;64.20;27.40;;;;;;;-2.01;89.70;97477.70;103589;1321;138819;-84
2021/12/11 02:28:15;;;;;;;67.40;29.00;;;;;;;-2.07;90.27;97482.73;103391;1320;25310;-85
2021/12/11 02:30:49;;;;;;;70.90;26.50;;;;;;;-2.08;90.63;97481.54;103093;1328;137828;-85
2021/12/11 02:33:32;;;;;;;72.00;28.80;;;;;;;-2.08;90.56;97489.60;103262;1328;22609;-85
2021/12/11 02:36:11;;;;;;;70.90;29.20;;;;;;;-2.08;90.55;97489.58;103108;1327;139153;-85
2021/12/11 02:38:48;;;;;;;65.50;28.10;;;;;;;-2.06;90.44;97499.00;103218;1321;22633;-84
2021/12/11 02:41:49;;;;;;;67.90;28.90;;;;;;;-2.06;90.35;97505.23;103119;1327;30639;-85
2021/12/11 02:44:28;;;;;;;74.30;30.60;;;;;;;-2.08;90.57;97508.45;103218;1326;137812;-85
2021/12/11 02:47:04;;;;;;;72.30;29.50;;;;;;;-2.06;91.03;97517.45;103357;1326;25293;-84
2021/12/11 02:49:52;;;;;;;80.60;28.70;;;;;;;-2.07;90.63;97518.46;103196;1321;139446;-85
2021/12/11 02:52:36;;;;;;;77.20;29.50;;;;;;;-2.09;90.41;97523.46;103650;1325;23257;-84
2021/12/11 02:55:15;;;;;;;54.90;22.00;;;;;;;-2.11;90.53;97524.39;103227;1324;137769;-84
2021/12/11 02:57:50;;;;;;;68.30;28.70;;;;;;;-2.14;90.45;97527.87;103465;1324;22638;-85
2021/12/11 03:00:30;;;;;;;72.90;29.10;;;;;;;-2.20;90.68;97529.04;103242;1326;138925;-84
2021/12/11 03:03:03;;;;;;;69.30;27.70;;;;;;;-2.22;90.83;97531.35;103098;1328;22681;-85
2021/12/11 03:05:39;;;;;;;71.70;28.20;;;;;;;-2.24;91.04;97535.30;102668;1328;22586;-85
2021/12/11 03:08:09;;;;;;;72.30;27.70;;;;;;;-2.24;91.35;97534.43;102924;1321;137562;-85
2021/12/11 03:10:38;;;;;;;72.20;27.20;;;;;;;-2.24;91.36;97533.62;102868;1323;25285;-84
2021/12/11 03:13:06;;;;;;;86.80;32.20;;;;;;;-2.25;91.35;97538.11;102976;1319;137477;-84
2021/12/11 03:15:33;;;;;;;80.90;32.10;;;;;;;-2.24;91.86;97532.39;102860;1322;24140;-84
2021/12/11 03:18:03;;;;;;;80.20;30.60;;;;;;;-2.17;91.98;97531.38;103059;1319;138307;-84
2021/12/11 03:20:31;;;;;;;75.60;30.20;;;;;;;-2.10;92.18;97533.95;102885;1327;23335;-85
2021/12/11 03:23:00;;;;;;;77.70;30.70;;;;;;;-2.07;92.16;97533.87;102772;1321;25220;-84
2021/12/11 03:25:30;;;;;;;63.10;25.30;;;;;;;-2.04;92.25;97528.44;102561;1324;137568;-84
2021/12/11 03:28:01;;;;;;;77.00;30.50;;;;;;;-2.05;91.99;97525.97;102727;1322;22618;-84
2021/12/11 03:30:37;;;;;;;79.60;31.10;;;;;;;-2.04;91.87;97528.27;102915;1324;138302;-84
2021/12/11 03:33:09;;;;;;;71.80;27.80;;;;;;;-2.01;92.18;97527.69;102965;1325;25384;-84
2021/12/11 03:35:42;;;;;;;84.40;31.90;;;;;;;-1.97;92.35;97529.09;103134;1321;22645;-84
2021/12/11 03:38:09;;;;;;;88.50;32.20;;;;;;;-1.92;92.56;97528.69;102760;1327;137471;-84
2021/12/11 03:40:38;;;;;;;90.70;33.70;;;;;;;-1.88;92.35;97532.91;102881;1321;22630;-84
2021/12/11 03:43:10;;;;;;;81.80;31.80;;;;;;;-1.85;92.32;97533.86;102658;1325;138116;-84
2021/12/11 03:45:40;;;;;;;79.70;31.60;;;;;;;-1.79;92.26;97536.72;102809;1326;22882;-84
2021/12/11 03:48:23;;;;;;;81.40;32.90;;;;;;;-1.75;92.64;97535.85;102711;1327;137953;-84
2021/12/11 03:50:51;;;;;;;83.50;32.00;;;;;;;-1.65;92.52;97539.78;103211;1326;22598;-85
2021/12/11 03:53:18;;;;;;;75.00;30.10;;;;;;;-1.61;92.35;97537.92;103077;1321;22645;-85
2021/12/11 03:55:55;;;;;;;81.20;32.00;;;;;;;-1.59;92.39;97545.96;102954;1326;138252;-84
2021/12/11 03:58:23;;;;;;;87.40;33.50;;;;;;;-1.55;92.23;97552.64;103009;1327;22752;-85
2021/12/11 04:00:59;;;;;;;79.10;31.20;;;;;;;-1.52;91.85;97554.08;103098;1321;138021;-84
2021/12/11 04:03:29;;;;;;;91.50;32.30;;;;;;;-1.48;91.91;97551.08;102994;1321;22593;-84
2021/12/11 04:05:59;;;;;;;88.30;33.60;;;;;;;-1.45;92.11;97552.21;103040;1326;137458;-84
2021/12/11 04:08:30;;;;;;;89.80;34.00;;;;;;;-1.42;91.95;97555.77;103099;1326;25306;-84
2021/12/11 04:10:57;;;;;;;87.90;33.20;;;;;;;-1.39;91.73;97556.73;103159;1322;22624;-84
2021/12/11 04:13:25;;;;;;;93.50;33.70;;;;;;;-1.37;91.98;97557.95;102937;1324;137838;-84
2021/12/11 04:15:54;;;;;;;91.10;33.60;;;;;;;-1.34;91.78;97557.29;102893;1324;291041;-84
2021/12/11 04:18:21;;;;;;;87.00;32.20;;;;;;;-1.31;91.64;97560.55;103157;1321;137710;-84
2021/12/11 04:20:50;;;;;;;84.60;32.80;;;;;;;-1.30;91.49;97558.10;103188;1320;24331;-84
2021/12/11 04:23:19;;;;;;;90.60;33.30;;;;;;;-1.28;91.43;97554.39;103247;1322;29788;-84
2021/12/11 04:25:50;;;;;;;88.70;34.20;;;;;;;-1.23;91.63;97558.66;103093;1329;138035;-84
2021/12/11 04:28:20;;;;;;;80.60;31.50;;;;;;;-1.20;91.38;97566.04;103171;1326;25410;-84
2021/12/11 04:30:52;;;;;;;82.70;32.20;;;;;;;-1.21;90.98;97573.67;103208;1326;137470;-84
2021/12/11 04:33:20;;;;;;;86.60;32.90;;;;;;;-1.24;91.28;97583.14;102937;1320;23989;-84
2021/12/11 04:35:48;;;;;;;86.60;32.50;;;;;;;-1.25;91.22;97589.99;102880;1326;22593;-84
2021/12/11 04:38:16;;;;;;;89.50;32.00;;;;;;;-1.25;91.09;97598.92;102823;1326;138822;-84
2021/12/11 04:40:49;;;;;;;89.90;33.10;;;;;;;-1.23;91.45;97600.83;103154;1325;22671;-84
2021/12/11 04:43:19;;;;;;;91.80;35.80;;;;;;;-1.19;91.24;97603.38;102816;1327;137779;-84
2021/12/11 04:45:54;;;;;;;92.80;34.20;;;;;;;-1.18;91.18;97605.88;103205;1320;24144;-84
2021/12/11 04:51:11;;;;;;;91.60;33.50;;;;;;;-1.10;91.18;97618.33;103530;1319;22657;-84
2021/12/11 05:02:17;;;;;;;88.00;33.10;;;;;;;-1.00;91.09;97629.43;103204;1320;138543;-84
2021/12/11 05:07:38;;;;;;;93.10;34.20;;;;;;;-1.00;90.39;97632.27;103854;1322;139039;-84
2021/12/11 05:10:18;;;;;;;91.00;32.90;;;;;;;-1.01;90.60;97632.80;103821;1322;22691;-85
2021/12/11 05:12:50;;;;;;;101.10;34.90;;;;;;;-1.00;90.79;97638.11;103914;1321;137637;-84
2021/12/11 05:15:33;;;;;;;93.90;33.60;;;;;;;-1.02;90.42;97640.42;103875;1325;22652;-84
2021/12/11 05:18:04;;;;;;;86.40;32.10;;;;;;;-0.99;90.85;97642.69;103611;1327;22792;-84
2021/12/11 05:20:33;;;;;;;96.40;33.70;;;;;;;-0.97;90.80;97647.48;102975;1321;137288;-84
2021/12/11 05:23:00;;;;;;;99.50;33.50;;;;;;;-0.93;90.58;97651.83;103195;1322;22758;-84
2021/12/11 05:25:28;;;;;;;109.50;36.70;;;;;;;-0.93;90.71;97652.16;103585;1321;137454;-84
2021/12/11 05:27:56;;;;;;;107.20;37.40;;;;;;;-0.92;90.65;97660.09;103507;1321;22683;-84
2021/12/11 05:30:35;;;;;;;89.30;32.90;;;;;;;-0.90;90.31;97665.90;103482;1321;138624;-84
2021/12/11 05:33:02;;;;;;;93.70;36.60;;;;;;;-0.93;90.35;97667.82;103507;1325;22624;-84
2021/12/11 05:35:32;;;;;;;95.80;34.10;;;;;;;-0.91;90.70;97672.46;103343;1322;22628;-84
2021/12/11 05:38:00;;;;;;;99.10;34.90;;;;;;;-0.91;90.49;97677.45;103150;1322;137609;-84
2021/12/11 05:40:30;;;;;;;105.30;36.80;;;;;;;-0.91;90.71;97680.91;103497;1319;23197;-84
2021/12/11 05:42:57;;;;;;;94.70;35.60;;;;;;;-0.87;90.72;97679.25;103318;1326;138811;-84
2021/12/11 05:45:39;;;;;;;97.40;35.50;;;;;;;-0.86;90.52;97678.04;103459;1327;22659;-84
2021/12/11 05:48:07;;;;;;;94.00;35.70;;;;;;;-0.87;90.28;97679.23;103473;1322;23288;-84
2021/12/11 05:50:41;;;;;;;101.20;37.80;;;;;;;-0.88;90.70;97685.52;103167;1322;137281;-84
2021/12/11 05:53:09;;;;;;;89.30;33.80;;;;;;;-0.83;90.81;97698.14;103104;1326;22643;-84
2021/12/11 05:55:39;;;;;;;95.20;34.70;;;;;;;-0.79;90.60;97699.16;103401;1322;137812;-84
2021/12/11 05:58:11;;;;;;;97.60;35.30;;;;;;;-0.74;90.69;97700.56;103502;1328;22696;-84
2021/12/11 06:00:42;;;;;;;90.80;32.90;;;;;;;-0.70;90.57;97697.62;103264;1320;137753;-84
2021/12/11 06:03:10;;;;;;;97.00;35.50;;;;;;;-0.70;90.23;97698.79;103439;1322;23724;-84
2021/12/11 06:05:37;;;;;;;98.70;34.70;;;;;;;-0.69;90.14;97704.60;103279;1321;22647;-84
2021/12/11 06:08:05;;;;;;;98.00;35.20;;;;;;;-0.69;90.13;97710.70;103454;1322;138222;-84
2021/12/11 06:10:33;;;;;;;93.70;35.30;;;;;;;-0.68;90.17;97711.10;103529;1326;24225;-84
2021/12/11 06:13:01;;;;;;;92.50;35.20;;;;;;;-0.67;89.97;97713.92;103422;1322;137527;-84
2021/12/11 06:15:29;;;;;;;84.30;32.30;;;;;;;-0.67;89.88;97715.36;103204;1323;22593;-84
2021/12/11 06:17:58;;;;;;;87.90;33.90;;;;;;;-0.71;89.56;97720.91;103295;1320;22618;-84
2021/12/11 06:20:39;;;;;;;94.70;34.40;;;;;;;-0.78;89.41;97724.91;103358;1325;139928;-84
2021/12/11 06:23:07;;;;;;;86.60;33.20;;;;;;;-0.78;89.75;97730.43;103449;1324;25264;-84
2021/12/11 06:25:34;;;;;;;89.10;33.50;;;;;;;-0.74;89.75;97733.01;103481;1326;137731;-84
2021/12/11 06:28:04;;;;;;;87.40;34.50;;;;;;;-0.71;89.66;97736.75;103426;1322;24298;-84
2021/12/11 06:30:32;;;;;;;76.20;31.80;;;;;;;-0.70;89.48;97741.48;103599;1321;137745;-84
2021/12/11 06:32:59;;;;;;;89.10;34.50;;;;;;;-0.75;88.84;97746.66;103511;1325;23364;-84
2021/12/11 06:35:41;;;;;;;102.20;34.20;;;;;;;-0.81;88.57;97744.63;103328;1325;22621;-84
2021/12/11 06:38:11;;;;;;;97.60;36.30;;;;;;;-0.91;88.68;97744.23;103129;1325;138726;-84
2021/12/11 06:40:38;;;;;;;95.20;35.60;;;;;;;-0.96;88.98;97754.98;103457;1320;22669;-84
2021/12/11 06:43:06;;;;;;;93.70;36.30;;;;;;;-0.99;89.05;97760.42;103324;1320;137519;-84
2021/12/11 06:45:34;;;;;;;99.50;38.10;;;;;;;-0.97;89.33;97767.33;103446;1321;22653;-84
2021/12/11 06:48:01;;;;;;;102.10;38.90;;;;;;;-0.94;89.32;97769.93;103622;1321;22661;-84
2021/12/11 06:50:28;;;;;;;91.80;36.00;;;;;;;-0.90;89.47;97779.77;103381;1321;138295;-84
2021/12/11 06:52:56;;;;;;;84.80;33.50;;;;;;;-0.88;89.11;97784.11;103155;1326;23561;-84
2021/12/11 06:55:24;;;;;;;97.10;36.80;;;;;;;-0.88;89.28;97795.25;103284;1327;137573;-84
2021/12/11 06:57:52;;;;;;;86.40;36.20;;;;;;;-0.83;89.39;97791.69;103331;1321;25450;-84
2021/12/11 07:00:21;;;;;;;94.70;37.60;;;;;;;-0.83;89.07;97784.33;103321;1321;137856;-84
2021/12/11 07:02:48;;;;;;;101.20;38.80;;;;;;;-0.87;88.72;97781.81;103129;1324;24268;-84
2021/12/11 07:05:15;;;;;;;99.40;40.10;;;;;;;-0.93;88.27;97786.14;103372;1320;25302;-84
2021/12/11 07:07:58;;;;;;;106.40;36.90;;;;;;;-1.00;88.37;97789.29;103636;1326;138293;-84
2021/12/11 07:10:25;;;;;;;104.10;38.40;;;;;;;-1.03;88.17;97801.61;103365;1326;22630;-84
2021/12/11 07:12:52;;;;;;;99.30;37.40;;;;;;;-1.04;88.55;97812.79;103258;1319;138105;-84
2021/12/11 07:15:19;;;;;;;106.20;40.10;;;;;;;-1.03;89.03;97817.45;103358;1324;22583;-85
2021/12/11 07:18:00;;;;;;;109.50;39.90;;;;;;;-1.00;89.16;97824.15;103279;1321;25573;-84
2021/12/11 07:20:27;;;;;;;100.00;39.30;;;;;;;-0.93;89.31;97828.73;103351;1325;139135;-84
2021/12/11 07:22:54;;;;;;;103.70;40.60;;;;;;;-0.86;89.18;97834.05;103225;1322;22617;-84
2021/12/11 07:25:36;;;;;;;104.40;40.20;;;;;;;-0.78;89.27;97838.83;103587;1326;137941;-84
2021/12/11 07:28:07;;;;;;;94.80;39.10;;;;;;;-0.74;88.83;97840.11;103451;1326;22606;-84
2021/12/11 07:30:37;;;;;;;99.40;39.20;;;;;;;-0.72;88.74;97841.09;103320;1320;137453;-85
2021/12/11 07:33:06;;;;;;;107.40;42.50;;;;;;;-0.74;88.47;97845.46;103207;1327;22611;-84
2021/12/11 07:35:36;;;;;;;108.50;40.00;;;;;;;-0.75;88.42;97849.35;103109;1325;22709;-84
2021/12/11 07:38:04;;;;;;;109.10;40.40;;;;;;;-0.78;87.72;97851.50;103205;1321;138509;-84
2021/12/11 07:40:37;;;;;;;88.00;34.50;;;;;;;-0.84;87.70;97853.04;103693;1326;22590;-84
2021/12/11 07:43:06;;;;;;;89.40;36.90;;;;;;;-0.87;87.73;97852.17;103380;1321;137483;-84
2021/12/11 07:45:34;;;;;;;93.60;34.60;;;;;;;-0.87;88.34;97851.80;103203;1321;25378;-84
2021/12/11 07:48:03;;;;;;;111.10;38.00;;;;;;;-0.89;87.97;97851.20;103484;1326;25562;-84
2021/12/11 07:50:30;;;;;;;75.40;27.40;;;;;;;-0.96;87.82;97850.09;103240;1327;138319;-84
2021/12/11 07:52:57;;;;;;;85.70;36.20;;;;;;;-1.04;87.95;97852.08;103292;1326;22723;-84
2021/12/11 07:55:25;;;;;;;101.80;38.50;;;;;;;-1.11;88.08;97855.45;102787;1324;138161;-84
2021/12/11 07:57:53;;;;;;;101.20;35.50;;;;;;;-1.13;88.10;97861.45;103533;1321;22638;-84
2021/12/11 08:00:25;;;;;;;91.70;36.40;;;;;;;-1.13;88.36;97869.11;103259;1321;137820;-84
2021/12/11 08:02:53;;;;;;;99.40;38.00;;;;;;;-1.10;88.54;97882.96;103257;1326;22731;-84
2021/12/11 08:05:22;;;;;;;92.00;36.40;;;;;;;-1.06;88.60;97888.77;103455;1328;22650;-84
2021/12/11 08:07:49;;;;;;;90.20;34.90;;;;;;;-1.03;88.81;97896.56;103540;1325;138765;-84
2021/12/11 08:10:20;;;;;;;91.20;35.70;;;;;;;-0.93;89.15;97905.84;103377;1320;24433;-84
2021/12/11 08:12:48;;;;;;;89.60;35.40;;;;;;;-0.82;89.19;97906.28;103174;1321;137449;-84
2021/12/11 08:15:17;;;;;;;97.70;39.50;;;;;;;-0.71;88.81;97907.17;103391;1321;22584;-84
2021/12/11 08:17:52;;;;;;;97.90;38.50;;;;;;;-0.66;88.61;97908.89;103338;1321;26263;-84
2021/12/11 08:20:20;;;;;;;111.70;42.70;;;;;;;-0.62;88.48;97910.64;103311;1320;137365;-84
2021/12/11 08:22:47;;;;;;;109.70;41.40;;;;;;;-0.60;88.38;97914.86;103044;1323;22623;-84
2021/12/11 08:25:15;;;;;;;100.10;38.60;;;;;;;-0.57;88.14;97920.60;103038;1320;138102;-84
2021/12/11 08:27:42;;;;;;;105.90;40.00;;;;;;;-0.55;88.06;97925.58;103398;1326;24301;-85
2021/12/11 08:30:10;;;;;;;104.10;39.80;;;;;;;-0.46;88.59;97927.65;103342;1327;24281;-85
2021/12/11 08:32:38;;;;;;;77.60;34.10;;;;;;;-0.35;88.63;97939.46;103304;1325;138338;-85
2021/12/11 08:35:09;;;;;;;83.70;35.10;;;;;;;-0.26;88.20;97945.50;103420;1322;22785;-83
2021/12/11 08:37:39;;;;;;;98.50;41.20;;;;;;;-0.22;87.50;97950.73;103158;1323;137539;-83
2021/12/11 08:40:11;;;;;;;104.50;40.90;;;;;;;-0.19;87.57;97955.55;103465;1327;22622;-84
2021/12/11 08:42:39;;;;;;;88.60;36.60;;;;;;;-0.12;87.71;97955.70;102929;1325;138682;-83
2021/12/11 08:45:24;;;;;;;90.90;39.60;;;;;;;-0.06;87.42;97957.83;103291;1321;22740;-83
2021/12/11 08:47:59;;;;;;;86.40;37.40;;;;;;;-0.02;87.32;97966.46;103471;1323;23993;-84
2021/12/11 08:50:30;;;;;;;78.50;32.20;;;;;;;0.04;87.45;97978.98;103352;1322;137588;-83
2021/12/11 08:52:58;;;;;;;83.40;33.80;;;;;;;0.04;86.52;97980.20;103666;1326;24209;-83
2021/12/11 08:55:32;;;;;;;85.70;36.50;;;;;;;0.02;86.57;97984.75;103198;1327;137589;-83
2021/12/11 08:58:00;;;;;;;90.50;36.50;;;;;;;0.07;86.84;97989.63;103239;1327;22635;-84
2021/12/11 09:00:36;;;;;;;76.30;31.80;;;;;;;0.17;86.83;97997.73;103240;1321;137688;-83
2021/12/11 09:03:10;;;;;;;78.50;33.80;;;;;;;0.22;86.63;98001.40;103511;1323;23406;-83
2021/12/11 09:05:48;;;;;;;88.80;36.70;;;;;;;0.23;86.07;98007.36;103504;1321;22725;-83
2021/12/11 09:08:33;;;;;;;85.80;37.10;;;;;;;0.24;86.66;98009.20;103419;1321;137432;-78
2021/12/11 09:11:15;;;;;;;86.10;39.60;;;;;;;0.47;88.53;98019.83;103261;1328;25346;-78
2021/12/11 09:14:03;;;;;;;74.50;33.10;;;;;;;0.79;87.61;98017.98;103094;1324;137910;-83
2021/12/11 09:16:42;;;;;;;68.70;30.30;;;;;;;0.98;86.29;98013.80;103176;1321;22598;-83
2021/12/11 09:19:27;;;;;;;65.50;30.10;;;;;;;1.10;85.87;98010.63;103121;1326;137084;-83
2021/12/11 09:22:34;;;;;;;67.60;29.60;;;;;;;1.18;85.02;98012.27;103168;1322;22614;-84
2021/12/11 09:25:23;;;;;;;69.40;32.30;;;;;;;1.16;84.28;98019.77;103085;1324;137731;-83
2021/12/11 09:28:16;;;;;;;77.00;35.30;;;;;;;1.09;84.47;98030.83;103192;1321;22727;-83
2021/12/11 09:30:58;;;;;;;75.00;33.80;;;;;;;1.12;84.83;98042.48;102889;1327;137874;-83
2021/12/11 09:33:48;;;;;;;73.80;32.40;;;;;;;1.16;84.45;98046.44;103319;1326;22621;-83
2021/12/11 09:36:24;;;;;;;71.70;31.20;;;;;;;1.22;84.12;98050.98;103228;1325;138160;-83
2021/12/11 09:38:59;;;;;;;69.70;31.00;;;;;;;1.26;84.19;98055.09;103502;1321;22618;-83
2021/12/11 09:41:25;;;;;;;58.50;27.70;;;;;;;1.32;84.12;98055.26;103331;1326;22634;-83
2021/12/11 09:43:58;;;;;;;58.30;26.10;;;;;;;1.34;83.49;98056.19;103362;1327;137204;-83
2021/12/11 09:46:31;;;;;;;61.00;28.10;;;;;;;1.36;83.53;98059.50;103622;1322;22579;-83
2021/12/11 09:49:01;;;;;;;69.50;30.50;;;;;;;1.38;83.51;98057.41;103408;1327;137298;-83
2021/12/11 09:51:34;;;;;;;66.30;29.40;;;;;;;1.41;83.13;98055.82;103294;1325;25586;-83
2021/12/11 09:54:09;;;;;;;67.10;31.70;;;;;;;1.40;82.40;98058.77;103317;1327;22606;-83
2021/12/11 09:56:44;;;;;;;61.00;28.60;;;;;;;1.36;82.62;98060.20;103267;1325;137071;-83
2021/12/11 09:59:15;;;;;;;72.60;30.80;;;;;;;1.32;82.52;98067.44;103647;1326;25339;-83
2021/12/11 10:02:03;;;;;;;73.70;32.20;;;;;;;1.31;82.72;98074.33;103452;1321;137462;-84
2021/12/11 10:04:39;;;;;;;76.00;33.50;;;;;;;1.27;82.37;98078.50;103255;1326;22628;-83
2021/12/11 10:09:53;;;;;;;62.00;27.40;;;;;;;1.20;81.93;98073.86;104060;1324;22906;-83
2021/12/11 10:12:45;;;;;;;58.40;26.70;;;;;;;1.13;81.97;98066.14;103424;1322;137808;-84
2021/12/11 10:15:30;;;;;;;65.20;27.20;;;;;;;1.13;81.97;98069.89;103441;1326;22622;-84
2021/12/11 10:18:24;;;;;;;63.40;29.00;;;;;;;1.14;82.44;98078.85;103455;1327;137488;-84
2021/12/11 10:21:00;;;;;;;64.70;29.20;;;;;;;1.18;82.77;98084.16;103598;1327;22652;-83
2021/12/11 10:23:32;;;;;;;72.60;31.40;;;;;;;1.19;82.69;98087.59;103691;1325;25341;-83
2021/12/11 10:26:10;;;;;;;58.70;28.70;;;;;;;1.22;82.69;98091.75;103498;1329;137943;-83
2021/12/11 10:28:45;;;;;;;61.10;28.00;;;;;;;1.24;82.41;98094.70;103686;1320;25651;-84
2021/12/11 10:31:22;;;;;;;61.90;27.50;;;;;;;1.21;81.85;98101.93;103422;1319;138905;-83
2021/12/11 10:33:56;;;;;;;60.00;27.80;;;;;;;1.12;81.85;98097.70;103631;1321;25326;-83
2021/12/11 10:36:30;;;;;;;69.30;28.50;;;;;;;1.03;81.67;98092.54;103273;1321;137380;-83
2021/12/11 10:39:00;;;;;;;57.60;25.20;;;;;;;0.94;82.01;98089.54;103596;1320;22634;-83
2021/12/11 10:41:31;;;;;;;76.30;32.20;;;;;;;0.87;81.95;98097.30;103486;1325;22634;-83
2021/12/11 10:44:25;;;;;;;76.20;30.40;;;;;;;0.86;82.82;98103.31;103125;1323;138098;-83
2021/12/11 10:47:08;;;;;;;68.40;29.30;;;;;;;0.87;82.89;98102.21;103735;1325;22665;-83
2021/12/11 10:49:43;;;;;;;67.80;30.80;;;;;;;0.86;82.90;98104.47;103509;1324;137577;-83
2021/12/11 10:52:30;;;;;;;68.40;29.40;;;;;;;0.89;83.59;98106.06;103131;1326;22574;-82
2021/12/11 10:55:02;;;;;;;73.60;32.50;;;;;;;0.97;83.76;98102.46;103194;1321;137573;-83
2021/12/11 10:57:31;;;;;;;72.20;33.40;;;;;;;1.06;83.93;98102.43;103159;1321;22627;-82
2021/12/11 10:59:59;;;;;;;75.90;31.40;;;;;;;1.13;83.69;98101.70;103171;1321;25627;-82
2021/12/11 11:02:31;;;;;;;64.70;30.10;;;;;;;1.19;83.13;98103.42;103486;1320;138212;-82
2021/12/11 11:05:04;;;;;;;76.80;32.70;;;;;;;1.22;83.10;98103.25;102874;1324;22924;-82
2021/12/11 11:07:32;;;;;;;63.60;28.30;;;;;;;1.26;82.90;98103.45;103295;1321;137303;-82
2021/12/11 11:10:03;;;;;;;65.50;30.60;;;;;;;1.29;82.72;98108.23;103207;1325;24440;-82
2021/12/11 11:12:31;;;;;;;68.90;30.30;;;;;;;1.33;82.88;98113.09;103397;1321;137858;-82
2021/12/11 11:14:59;;;;;;;74.30;32.60;;;;;;;1.35;82.83;98111.41;103099;1321;22716;-82
2021/12/11 11:17:30;;;;;;;69.00;32.40;;;;;;;1.29;81.99;98113.27;103207;1321;22677;-82
2021/12/11 11:19:58;;;;;;;66.20;30.10;;;;;;;1.16;81.91;98116.56;103085;1326;137698;-81
2021/12/11 11:22:30;;;;;;;61.80;27.70;;;;;;;1.07;81.73;98124.58;103040;1319;22786;-82
2021/12/11 11:25:23;;;;;;;67.40;30.10;;;;;;;1.02;82.21;98122.27;103062;1326;137424;-81
2021/12/11 11:27:57;;;;;;;61.30;27.20;;;;;;;1.07;82.87;98125.52;103396;1321;22562;-81
2021/12/11 11:30:32;;;;;;;71.70;31.20;;;;;;;1.09;82.43;98122.41;103019;1325;137363;-81
2021/12/11 11:33:01;;;;;;;83.50;34.20;;;;;;;0.99;81.92;98119.85;103131;1320;30652;-81
2021/12/11 11:35:32;;;;;;;74.50;33.10;;;;;;;0.86;82.14;98129.33;103288;1324;22728;-81
2021/12/11 11:38:02;;;;;;;75.50;31.60;;;;;;;0.75;82.09;98139.52;102834;1324;137471;-81
2021/12/11 11:40:33;;;;;;;;;;;;;;;0.66;82.76;98150.31;103414;1327;24520;-81
2021/12/11 11:43:03;;;;;;;70.40;30.50;;;;;;;0.63;83.19;98155.64;103131;1322;123494;-81
2021/12/11 11:45:32;;;;;;;99.00;36.20;;;;;;;0.63;83.35;98150.27;103175;1321;22645;-81
2021/12/11 11:48:00;;;;;;;89.00;34.30;;;;;;;0.56;82.97;98148.96;102993;1324;22740;-81
2021/12/11 11:50:32;;;;;;;77.20;32.50;;;;;;;0.44;83.25;98152.23;103067;1327;137664;-81
2021/12/11 11:53:00;;;;;;;91.40;37.70;;;;;;;0.34;83.32;98156.05;103208;1324;24329;-81